Time;durP1;ratioP1;P1;durP2;ratioP2;P2;SDS_P1;SDS_P2;PMS_P1;PMS_P2;Temp;Humidity;BMP_temperature;BMP_pressure;BME280_temperature;BME280_humidity;BME280_pressure;Samples;Min_cycle;Max_cycle;Signal;HPM_P1;HPM_P2
2021/08/26 00:00:08;;;;;;;;;;;;;;;18.19;100.00;99889.91;5040603;28;19932;-85
2021/08/26 00:08:12;;;;;;;;;;;;;;;17.72;100.00;99878.56;5061010;28;20376;-85
2021/08/26 00:10:41;;;;;;;;;;;;;;;17.95;100.00;99895.13;5038151;28;19925;-85
2021/08/26 00:13:10;;;;;;;;;;;;;;;17.93;100.00;99887.09;5037804;28;19931;-85
2021/08/26 00:15:42;;;;;;;;;;;;;;;18.19;100.00;99885.03;5054567;28;19931;-85
2021/08/26 00:18:09;;;;;;;;;;;;;;;18.00;100.00;99883.25;5054835;28;19942;-86
2021/08/26 00:20:37;;;;;;;;;;;;;;;18.02;100.00;99875.13;5070578;28;19925;-84
2021/08/26 00:23:05;;;;;;;;;;;;;;;17.92;100.00;99870.59;5037343;28;20291;-85
2021/08/26 00:25:32;;;;;;;;;;;;;;;18.07;100.00;99866.06;5054268;28;19925;-84
2021/08/26 00:27:59;;;;;;;;;;;;;;;18.10;100.00;99870.78;5054105;28;20450;-85
2021/08/26 00:30:29;;;;;;;;;;;;;;;18.10;100.00;99865.13;5055125;28;20082;-85
2021/08/26 00:33:22;;;;;;;;;;;;;;;17.99;100.00;99868.31;5053959;28;19924;-84
2021/08/26 00:35:50;;;;;;;;;;;;;;;18.03;100.00;99871.03;5037131;28;19925;-85
2021/08/26 00:38:20;;;;;;;;;;;;;;;18.10;100.00;99867.19;5057542;28;19925;-85
2021/08/26 00:40:48;;;;;;;;;;;;;;;17.81;100.00;99870.94;5067221;28;19925;-85
2021/08/26 00:43:15;;;;;;;;;;;;;;;17.83;100.00;99867.66;5054587;28;19925;-85
2021/08/26 00:45:42;;;;;;;;;;;;;;;18.14;100.00;99870.69;5053331;28;20070;-84
2021/08/26 00:48:11;;;;;;;;;;;;;;;17.83;100.00;99867.66;5053393;28;21172;-85
2021/08/26 00:50:38;;;;;;;;;;;;;;;18.01;100.00;99867.88;5036446;28;20372;-84
2021/08/26 00:53:05;;;;;;;;;;;;;;;18.05;100.00;99862.91;5053155;28;19931;-85
2021/08/26 00:55:32;;;;;;;;;;;;;;;18.13;100.00;99867.06;5053315;28;20376;-85
2021/08/26 00:58:01;;;;;;;;;;;;;;;18.22;100.00;99861.50;5020311;28;19925;-85
2021/08/26 01:00:30;;;;;;;;;;;;;;;18.22;100.00;99864.31;5053483;28;19996;-86
2021/08/26 01:03:02;;;;;;;;;;;;;;;18.21;100.00;99861.94;5036991;28;19932;-85
2021/08/26 01:05:37;;;;;;;;;;;;;;;18.23;100.00;99870.78;5016758;28;19971;-85
2021/08/26 01:08:07;;;;;;;;;;;;;;;18.29;100.00;99866.13;5063068;28;20376;-85
2021/08/26 01:10:34;;;;;;;;;;;;;;;18.47;100.00;99872.78;5053449;28;19977;-86
2021/08/26 01:13:02;;;;;;;;;;;;;;;18.61;100.00;99866.63;5061802;28;19932;-86
2021/08/26 01:15:29;;;;;;;;;;;;;;;18.45;100.00;99857.53;5053008;28;19925;-86
2021/08/26 01:17:56;;;;;;;;;;;;;;;18.68;100.00;99863.53;5036796;28;19928;-86
2021/08/26 01:20:25;;;;;;;;;;;;;;;18.66;100.00;99863.19;5061398;28;19932;-85
2021/08/26 01:22:52;;;;;;;;;;;;;;;18.76;100.00;99867.69;5028532;28;19924;-85
2021/08/26 01:25:21;;;;;;;;;;;;;;;18.95;100.00;99858.06;5036655;28;19932;-86
2021/08/26 01:27:50;;;;;;;;;;;;;;;18.86;100.00;99855.19;5052926;28;19925;-86
2021/08/26 01:30:19;;;;;;;;;;;;;;;18.94;100.00;99850.84;5045183;28;20277;-85
2021/08/26 01:32:52;;;;;;;;;;;;;;;18.77;100.00;99846.63;5020204;28;19925;-86
2021/08/26 01:35:19;;;;;;;;;;;;;;;18.97;100.00;99844.25;5036173;28;20362;-85
2021/08/26 01:37:47;;;;;;;;;;;;;;;18.99;100.00;99827.56;5069386;28;19932;-85
2021/08/26 01:40:14;;;;;;;;;;;;;;;18.80;100.00;99837.22;5036116;28;19971;-86
2021/08/26 01:42:44;;;;;;;;;;;;;;;18.56;100.00;99847.41;5052672;28;19932;-85
2021/08/26 01:45:13;;;;;;;;;;;;;;;18.57;100.00;99842.53;5065601;28;19963;-86
2021/08/26 01:47:40;;;;;;;;;;;;;;;18.61;100.00;99831.88;5053151;28;19924;-86
2021/08/26 01:50:08;;;;;;;;;;;;;;;18.72;100.00;99827.38;5052900;28;19924;-86
2021/08/26 01:52:35;;;;;;;;;;;;;;;18.66;100.00;99817.91;5064614;28;19928;-85
2021/08/26 01:55:04;;;;;;;;;;;;;;;18.44;100.00;99816.31;5055063;28;20329;-85
2021/08/26 01:57:32;;;;;;;;;;;;;;;18.29;100.00;99816.00;5069174;28;19925;-86
2021/08/26 02:00:12;;;;;;;;;;;;;;;18.23;100.00;99823.50;5052851;28;19932;-85
2021/08/26 02:02:42;;;;;;;;;;;;;;;18.24;100.00;99813.75;5036205;28;19925;-84
2021/08/26 02:05:18;;;;;;;;;;;;;;;18.35;100.00;99807.72;5053275;28;20390;-85
2021/08/26 02:07:46;;;;;;;;;;;;;;;18.24;100.00;99808.09;5036299;28;20008;-84
2021/08/26 02:10:13;;;;;;;;;;;;;;;18.18;100.00;99804.25;5052359;28;19991;-85
2021/08/26 02:12:40;;;;;;;;;;;;;;;18.29;100.00;99810.34;5069251;28;19925;-85
2021/08/26 02:15:08;;;;;;;;;;;;;;;18.26;100.00;99810.47;5020684;28;19974;-85
2021/08/26 02:17:35;;;;;;;;;;;;;;;18.26;100.00;99811.25;5031535;28;20472;-85
2021/08/26 02:20:03;;;;;;;;;;;;;;;18.33;100.00;99811.00;5066092;28;19946;-86
2021/08/26 02:22:31;;;;;;;;;;;;;;;18.33;100.00;99811.00;5052292;28;19940;-85
2021/08/26 02:24:58;;;;;;;;;;;;;;;18.36;100.00;99810.09;5052339;28;20016;-85
2021/08/26 02:27:25;;;;;;;;;;;;;;;18.30;100.00;99811.13;5035685;28;19943;-85
2021/08/26 02:29:52;;;;;;;;;;;;;;;18.30;100.00;99813.94;5052433;28;19975;-85
2021/08/26 02:32:19;;;;;;;;;;;;;;;18.28;100.00;99803.09;5053213;28;19937;-85
2021/08/26 02:34:46;;;;;;;;;;;;;;;18.07;100.00;99806.66;5051754;28;19925;-86
2021/08/26 02:37:14;;;;;;;;;;;;;;;18.12;100.00;99811.75;5049866;28;20384;-86
2021/08/26 02:39:41;;;;;;;;;;;;;;;18.26;100.00;99813.28;5035466;28;19963;-85
2021/08/26 02:42:09;;;;;;;;;;;;;;;18.26;100.00;99805.59;5049307;28;19925;-86
2021/08/26 02:44:36;;;;;;;;;;;;;;;18.11;100.00;99801.69;5056291;28;19929;-85
2021/08/26 02:47:03;;;;;;;;;;;;;;;18.19;100.00;99805.84;5051728;28;20031;-85
2021/08/26 02:49:31;;;;;;;;;;;;;;;18.40;100.00;99813.63;5059999;28;19932;-85
2021/08/26 02:51:58;;;;;;;;;;;;;;;17.99;100.00;99808.19;5051761;28;19960;-85
2021/08/26 02:54:25;;;;;;;;;;;;;;;18.22;100.00;99807.75;5041939;28;19928;-85
2021/08/26 02:56:52;;;;;;;;;;;;;;;18.35;100.00;99805.69;5036107;28;19925;-84
2021/08/26 02:59:20;;;;;;;;;;;;;;;17.83;100.00;99799.81;5062735;28;20023;-86
2021/08/26 03:01:47;;;;;;;;;;;;;;;17.91;100.00;99795.53;5053444;28;19948;-85
2021/08/26 03:04:14;;;;;;;;;;;;;;;18.01;100.00;99800.00;5053617;28;19935;-86
2021/08/26 03:06:41;;;;;;;;;;;;;;;18.15;100.00;99799.53;5052987;28;19925;-85
2021/08/26 03:09:09;;;;;;;;;;;;;;;18.11;100.00;99796.03;5069427;28;19925;-85
2021/08/26 03:11:36;;;;;;;;;;;;;;;18.11;100.00;99793.22;5055300;28;19932;-85
2021/08/26 03:14:04;;;;;;;;;;;;;;;17.96;100.00;99809.09;5039120;28;19931;-85
2021/08/26 03:16:31;;;;;;;;;;;;;;;18.07;100.00;99798.19;5055695;28;19981;-85
2021/08/26 03:18:58;;;;;;;;;;;;;;;18.24;100.00;99793.94;5055436;28;19925;-85
2021/08/26 03:21:25;;;;;;;;;;;;;;;18.02;100.00;99793.13;5056530;28;20414;-85
2021/08/26 03:23:52;;;;;;;;;;;;;;;18.20;100.00;99793.28;5072057;28;19925;-85
2021/08/26 03:26:20;;;;;;;;;;;;;;;17.93;100.00;99799.47;5047922;28;19924;-85
2021/08/26 03:28:50;;;;;;;;;;;;;;;17.99;100.00;99786.31;5026512;28;19924;-85
2021/08/26 03:31:18;;;;;;;;;;;;;;;18.11;100.00;99783.94;5023666;28;19964;-85
2021/08/26 03:33:45;;;;;;;;;;;;;;;18.28;100.00;99779.69;5027633;28;19929;-85
2021/08/26 03:36:12;;;;;;;;;;;;;;;18.11;100.00;99781.09;5038909;28;19928;-86
2021/08/26 03:38:40;;;;;;;;;;;;;;;17.93;100.00;99788.16;5039028;28;19924;-86
2021/08/26 03:41:07;;;;;;;;;;;;;;;17.89;100.00;99786.69;5060025;28;19938;-85
2021/08/26 03:43:34;;;;;;;;;;;;;;;18.12;100.00;99789.13;5080473;28;20387;-86
2021/08/26 03:46:02;;;;;;;;;;;;;;;18.27;100.00;99780.91;5038056;28;19932;-86
2021/08/26 03:48:29;;;;;;;;;;;;;;;18.18;100.00;99781.63;5048051;28;20019;-86
2021/08/26 03:50:57;;;;;;;;;;;;;;;17.84;100.00;99778.81;5059133;28;20277;-86
2021/08/26 03:53:24;;;;;;;;;;;;;;;17.93;100.00;99790.97;5054764;28;20035;-86
2021/08/26 03:55:52;;;;;;;;;;;;;;;18.12;100.00;99783.47;5054720;28;19925;-86
2021/08/26 03:58:19;;;;;;;;;;;;;;;17.90;100.00;99789.06;5038166;28;19928;-85
2021/08/26 04:00:46;;;;;;;;;;;;;;;17.86;100.00;99788.41;5071240;28;19932;-85
2021/08/26 04:03:13;;;;;;;;;;;;;;;17.88;100.00;99791.56;5037737;28;19960;-86
2021/08/26 04:05:40;;;;;;;;;;;;;;;17.89;100.00;99789.53;5056254;28;20343;-85
2021/08/26 04:08:07;;;;;;;;;;;;;;;17.63;100.00;99790.81;5055890;28;19929;-84
2021/08/26 04:10:34;;;;;;;;;;;;;;;17.77;100.00;99801.63;5038088;28;19929;-85
2021/08/26 04:13:02;;;;;;;;;;;;;;;17.72;100.00;99793.75;5037645;28;20342;-85
2021/08/26 04:15:30;;;;;;;;;;;;;;;17.74;100.00;99796.91;5054601;28;19975;-85
2021/08/26 04:17:58;;;;;;;;;;;;;;;17.96;100.00;99780.81;5054183;28;20354;-86
2021/08/26 04:20:25;;;;;;;;;;;;;;;17.75;100.00;99792.84;5037952;28;20383;-86
2021/08/26 04:22:53;;;;;;;;;;;;;;;17.68;100.00;99790.25;5066030;28;20295;-85
2021/08/26 04:25:20;;;;;;;;;;;;;;;17.80;100.00;99786.59;5055920;28;19964;-85
2021/08/26 04:27:47;;;;;;;;;;;;;;;17.63;100.00;99785.94;5070465;28;19932;-85
2021/08/26 04:30:15;;;;;;;;;;;;;;;17.85;100.00;99778.34;5003888;28;19933;-86
2021/08/26 04:32:43;;;;;;;;;;;;;;;17.79;100.00;99777.34;5053816;28;19925;-85
2021/08/26 04:35:10;;;;;;;;;;;;;;;17.82;100.00;99782.09;5068965;28;19924;-85
2021/08/26 04:37:37;;;;;;;;;;;;;;;17.73;100.00;99795.31;5037444;28;19925;-85
2021/08/26 04:40:05;;;;;;;;;;;;;;;17.73;100.00;99781.19;5037686;28;20295;-85
2021/08/26 04:42:33;;;;;;;;;;;;;;;17.47;100.00;99780.44;5053714;28;19925;-85
2021/08/26 04:45:00;;;;;;;;;;;;;;;17.56;100.00;99783.38;5037513;28;19924;-85
2021/08/26 04:47:27;;;;;;;;;;;;;;;17.75;100.00;99787.19;5072935;28;20391;-85
2021/08/26 04:49:54;;;;;;;;;;;;;;;17.62;100.00;99789.22;5080172;28;19933;-85
2021/08/26 04:52:22;;;;;;;;;;;;;;;17.74;100.00;99791.25;5037058;28;19982;-86
2021/08/26 04:54:49;;;;;;;;;;;;;;;17.62;100.00;99789.22;5053395;28;19932;-85
2021/08/26 04:57:16;;;;;;;;;;;;;;;17.53;100.00;99786.28;5053575;28;19925;-85
2021/08/26 04:59:43;;;;;;;;;;;;;;;17.73;100.00;99781.19;5039543;28;19924;-85
2021/08/26 05:02:10;;;;;;;;;;;;;;;17.67;100.00;99783.00;5080023;28;20527;-85
2021/08/26 05:04:37;;;;;;;;;;;;;;;17.62;100.00;99780.75;5069862;28;19925;-85
2021/08/26 05:07:05;;;;;;;;;;;;;;;17.25;100.00;99776.66;5048657;28;19987;-85
2021/08/26 05:09:32;;;;;;;;;;;;;;;17.53;100.00;99778.63;5052470;28;19974;-85
2021/08/26 05:12:00;;;;;;;;;;;;;;;17.61;100.00;99776.34;5038980;28;19925;-84
2021/08/26 05:14:28;;;;;;;;;;;;;;;17.48;100.00;99784.84;5053535;28;19925;-84
2021/08/26 05:16:58;;;;;;;;;;;;;;;17.43;100.00;99782.56;5053298;28;19982;-84
2021/08/26 05:19:26;;;;;;;;;;;;;;;17.41;100.00;99784.25;5036786;28;19928;-89
2021/08/26 05:21:53;;;;;;;;;;;;;;;17.56;100.00;99788.22;5036615;28;20288;-90
2021/08/26 05:24:20;;;;;;;;;;;;;;;17.43;100.00;99791.03;5053114;28;19931;-81
2021/08/26 05:26:48;;;;;;;;;;;;;;;17.53;100.00;99791.94;5052609;28;19925;-88
2021/08/26 05:29:15;;;;;;;;;;;;;;;17.39;100.00;99792.38;5052784;28;19936;-89
2021/08/26 05:31:42;;;;;;;;;;;;;;;17.49;100.00;99796.94;5076877;28;19924;-87
2021/08/26 05:34:10;;;;;;;;;;;;;;;17.30;100.00;99790.22;5074026;28;19925;-87
2021/08/26 05:36:37;;;;;;;;;;;;;;;17.21;100.00;99794.97;5033115;28;19931;-87
2021/08/26 05:39:05;;;;;;;;;;;;;;;17.16;100.00;99795.53;5070121;28;19932;-88
2021/08/26 05:41:32;;;;;;;;;;;;;;;17.30;100.00;99795.09;5085685;28;19929;-88
2021/08/26 05:44:00;;;;;;;;;;;;;;;17.04;100.00;99785.81;5053014;28;19924;-88
2021/08/26 05:46:27;;;;;;;;;;;;;;;17.14;100.00;99786.72;5052331;28;19925;-88
2021/08/26 05:48:54;;;;;;;;;;;;;;;17.10;100.00;99786.06;5037926;28;19927;-88
2021/08/26 05:51:23;;;;;;;;;;;;;;;17.05;100.00;99792.25;5031577;28;19925;-86
2021/08/26 05:53:50;;;;;;;;;;;;;;;17.23;100.00;99795.31;5019568;28;19925;-88
2021/08/26 05:56:17;;;;;;;;;;;;;;;17.24;100.00;99797.69;5035579;28;19925;-88
2021/08/26 05:58:45;;;;;;;;;;;;;;;16.98;100.00;99807.38;5052513;28;20011;-87
2021/08/26 06:01:14;;;;;;;;;;;;;;;17.00;100.00;99804.88;5053774;28;20368;-88
2021/08/26 06:03:41;;;;;;;;;;;;;;;17.08;100.00;99805.47;5044798;28;20383;-88
2021/08/26 06:06:09;;;;;;;;;;;;;;;16.86;100.00;99807.34;5033465;28;19970;-86
2021/08/26 06:08:36;;;;;;;;;;;;;;;16.81;100.00;99819.19;5019442;28;19924;-88
2021/08/26 06:11:03;;;;;;;;;;;;;;;16.94;100.00;99831.28;5052493;28;19932;-88
2021/08/26 06:13:31;;;;;;;;;;;;;;;16.79;100.00;99844.25;5052733;28;20280;-85
2021/08/26 06:15:58;;;;;;;;;;;;;;;16.90;100.00;99836.25;5052561;28;19925;-89
2021/08/26 06:18:25;;;;;;;;;;;;;;;16.85;100.00;99842.44;5086340;28;19979;-88
2021/08/26 06:20:52;;;;;;;;;;;;;;;16.92;100.00;99842.25;5035823;28;19924;-88
2021/08/26 06:23:19;;;;;;;;;;;;;;;16.66;100.00;99834.94;5069045;28;19940;-88
2021/08/26 06:25:46;;;;;;;;;;;;;;;16.66;100.00;99832.13;5035217;28;19925;-88
2021/08/26 06:28:13;;;;;;;;;;;;;;;16.63;100.00;99824.56;5052197;28;20039;-91
2021/08/26 06:30:40;;;;;;;;;;;;;;;16.58;100.00;99823.06;5046677;28;19924;-88
2021/08/26 06:33:08;;;;;;;;;;;;;;;16.54;100.00;99822.34;5029793;28;19932;-87
2021/08/26 06:35:37;;;;;;;;;;;;;;;16.44;100.00;99817.03;5020031;28;19935;-87
2021/08/26 06:38:04;;;;;;;;;;;;;;;16.43;100.00;99809.78;5047870;28;19925;-83
2021/08/26 06:40:31;;;;;;;;;;;;;;;16.69;100.00;99817.13;5070350;28;19924;-81
2021/08/26 06:42:58;;;;;;;;;;;;;;;16.79;100.00;99832.94;5055875;28;20384;-82
2021/08/26 06:45:25;;;;;;;;;;;;;;;16.83;100.00;99813.88;5055681;28;19952;-80
2021/08/26 06:47:52;;;;;;;;;;;;;;;16.70;100.00;99824.34;5057192;28;19929;-80
2021/08/26 06:50:19;;;;;;;;;;;;;;;16.91;100.00;99818.06;5057013;28;19925;-80
2021/08/26 06:52:46;;;;;;;;;;;;;;;16.96;100.00;99809.88;5056565;28;20031;-80
2021/08/26 06:55:13;;;;;;;;;;;;;;;16.87;100.00;99818.19;5056681;28;19925;-80
2021/08/26 06:57:40;;;;;;;;;;;;;;;16.60;100.00;99809.28;5062039;28;20308;-79
2021/08/26 07:00:08;;;;;;;;;;;;;;;16.79;100.00;99810.38;5062668;28;19925;-81
2021/08/26 07:02:35;;;;;;;;;;;;;;;16.73;100.00;99815.78;5063891;28;19932;-80
2021/08/26 07:05:03;;;;;;;;;;;;;;;17.02;100.00;99802.41;5060737;28;19924;-80
2021/08/26 07:07:32;;;;;;;;;;;;;;;17.12;100.00;99825.91;5076650;28;20434;-80
2021/08/26 07:10:01;;;;;;;;;;;;;;;17.13;100.00;99816.22;5076528;28;20366;-80
2021/08/26 07:12:30;;;;;;;;;;;;;;;16.88;100.00;99810.50;5069005;28;19924;-80
2021/08/26 07:15:01;;;;;;;;;;;;;;;16.90;100.00;99822.16;5068728;28;19968;-76
2021/08/26 07:17:28;;;;;;;;;;;;;;;17.24;100.00;99811.81;5059732;28;19939;-80
2021/08/26 07:19:55;;;;;;;;;;;;;;;17.02;100.00;99816.53;5064610;28;19925;-77
2021/08/26 07:22:24;;;;;;;;;;;;;;;17.29;100.00;99821.75;5059200;28;19925;-81
2021/08/26 07:24:51;;;;;;;;;;;;;;;17.51;100.00;99811.38;5056501;28;19924;-80
2021/08/26 07:27:19;;;;;;;;;;;;;;;17.30;100.00;99803.56;5047761;28;20371;-79
2021/08/26 07:29:47;;;;;;;;;;;;;;;17.49;100.00;99822.38;5076445;28;19924;-79
2021/08/26 07:32:15;;;;;;;;;;;;;;;17.14;100.00;99814.97;5066761;28;19928;-80
2021/08/26 07:34:42;;;;;;;;;;;;;;;17.29;100.00;99799.16;5054878;28;19924;-80
2021/08/26 07:37:10;;;;;;;;;;;;;;;17.03;100.00;99798.34;5054554;28;19931;-79
2021/08/26 07:39:37;;;;;;;;;;;;;;;16.75;100.00;99818.16;5062104;28;19947;-77
2021/08/26 07:42:04;;;;;;;;;;;;;;;16.97;100.00;99833.22;5064275;28;19924;-80
2021/08/26 07:44:34;;;;;;;;;;;;;;;17.10;100.00;99817.13;5069588;28;19970;-79
2021/08/26 07:47:03;;;;;;;;;;;;;;;17.67;100.00;99828.22;5069967;28;20322;-80
2021/08/26 07:49:30;;;;;;;;;;;;;;;17.71;100.00;99820.41;5076110;28;19963;-79
2021/08/26 07:51:57;;;;;;;;;;;;;;;18.03;100.00;99825.81;5063917;28;19925;-79
2021/08/26 07:54:24;;;;;;;;;;;;;;;19.11;100.00;99823.91;5068781;28;19978;-79
2021/08/26 07:56:51;;;;;;;;;;;;;;;19.46;100.00;99811.19;5075577;28;19924;-83
2021/08/26 07:59:18;;;;;;;;;;;;;;;19.24;100.00;99807.59;5060767;28;20053;-79
2021/08/26 08:01:45;;;;;;;;;;;;;;;18.88;100.00;99820.75;5037263;28;19935;-78
2021/08/26 08:04:13;;;;;;;;;;;;;;;18.40;100.00;99815.66;5057130;28;19924;-79
2021/08/26 08:06:40;;;;;;;;;;;;;;;17.63;100.00;99819.09;5024992;28;19925;-78
2021/08/26 08:09:07;;;;;;;;;;;;;;;17.41;100.00;99812.50;5056883;28;19943;-77
2021/08/26 08:11:34;;;;;;;;;;;;;;;17.41;100.00;99830.25;5055438;28;19925;-78
2021/08/26 08:14:02;;;;;;;;;;;;;;;17.58;100.00;99831.72;5055357;28;19932;-78
2021/08/26 08:16:29;;;;;;;;;;;;;;;17.74;100.00;99842.13;5056013;28;19925;-77
2021/08/26 08:18:56;;;;;;;;;;;;;;;17.73;100.00;99847.00;5062798;28;19928;-79
2021/08/26 08:21:24;;;;;;;;;;;;;;;18.60;100.00;99830.28;5074903;28;20256;-77
2021/08/26 08:23:51;;;;;;;;;;;;;;;18.75;100.00;99826.47;5055982;28;20276;-78
2021/08/26 08:26:18;;;;;;;;;;;;;;;18.89;100.00;99825.16;5056633;28;19925;-78
2021/08/26 08:28:45;;;;;;;;;;;;;;;18.42;100.00;99825.25;5059395;28;19956;-78
2021/08/26 08:31:13;;;;;;;;;;;;;;;18.37;100.00;99823.03;5073974;28;19932;-77
2021/08/26 08:33:44;;;;;;;;;;;;;;;17.86;100.00;99827.19;5073350;28;19932;-78
2021/08/26 08:36:11;;;;;;;;;;;;;;;18.06;100.00;99841.84;5077509;28;19925;-78
2021/08/26 08:38:38;;;;;;;;;;;;;;;18.08;100.00;99827.25;5045749;28;20329;-79
2021/08/26 08:41:06;;;;;;;;;;;;;;;18.18;100.00;99821.25;5019987;28;19932;-78
2021/08/26 08:43:35;;;;;;;;;;;;;;;18.02;100.00;99830.66;5052411;28;20071;-79
2021/08/26 08:46:04;;;;;;;;;;;;;;;18.16;100.00;99828.59;5055458;28;19925;-78
2021/08/26 08:48:34;;;;;;;;;;;;;;;18.59;100.00;99834.34;5053699;28;20434;-78
2021/08/26 08:51:01;;;;;;;;;;;;;;;19.08;100.00;99826.84;5058718;28;19928;-79
2021/08/26 08:53:29;;;;;;;;;;;;;;;20.29;100.00;99819.47;5058658;28;19925;-78
2021/08/26 08:55:58;;;;;;;;;;;;;;;20.62;100.00;99819.63;5052771;28;19925;-79
2021/08/26 08:58:25;;;;;;;;;;;;;;;19.78;100.00;99826.13;5056190;28;20019;-79
2021/08/26 09:00:53;;;;;;;;;;;;;;;19.11;100.00;99820.25;5054102;28;19924;-78
2021/08/26 09:03:20;;;;;;;;;;;;;;;18.63;100.00;99824.50;5054782;28;19925;-78
2021/08/26 09:05:48;;;;;;;;;;;;;;;19.13;100.00;99818.53;5054781;28;20288;-77
2021/08/26 09:08:16;;;;;;;;;;;;;;;18.90;100.00;99821.09;5054517;28;19968;-77
2021/08/26 09:10:44;;;;;;;;;;;;;;;18.91;100.00;99823.44;5052615;28;20300;-77
2021/08/26 09:13:11;;;;;;;;;;;;;;;19.00;100.00;99826.34;5061228;28;19932;-77
2021/08/26 09:15:44;;;;;;;;;;;;;;;19.26;100.00;99822.09;5053845;28;19940;-77
2021/08/26 09:18:18;;;;;;;;;;;;;;;18.96;100.00;99825.66;5053241;28;19932;-77
2021/08/26 09:20:55;;;;;;;;;;;;;;;19.17;100.00;99819.22;5062780;28;19924;-78
2021/08/26 09:23:24;;;;;;;;;;;;;;;18.77;100.00;99817.50;5057223;28;19925;-77
2021/08/26 09:25:52;;;;;;;;;;;;;;;19.07;100.00;99820.41;5053537;28;19979;-77
2021/08/26 09:28:25;;;;;;;;;;;;;;;19.10;100.00;99825.13;5043376;28;19931;-76
2021/08/26 09:31:11;;;;;;;;;;;;;;;19.26;100.00;99821.28;5064523;28;19924;-77
2021/08/26 09:33:50;;;;;;;;;;;;;;;19.33;100.00;99823.88;5094856;28;19996;-77
2021/08/26 09:36:19;;;;;;;;;;;;;;;18.97;100.00;99821.59;5063092;28;19986;-77
2021/08/26 09:38:53;;;;;;;;;;;;;;;19.51;100.00;99826.78;5063166;28;20024;-78
2021/08/26 09:41:39;;;;;;;;;;;;;;;19.43;100.00;99831.94;5059265;28;19925;-79
2021/08/26 09:44:09;;;;;;;;;;;;;;;19.01;100.00;99827.91;5059149;28;19970;-78
2021/08/26 09:46:36;;;;;;;;;;;;;;;19.12;100.00;99831.13;5050683;28;19929;-78
2021/08/26 09:49:08;;;;;;;;;;;;;;;19.23;100.00;99828.69;5055894;28;19955;-78
2021/08/26 09:51:35;;;;;;;;;;;;;;;19.72;100.00;99825.16;5056366;28;19928;-78
2021/08/26 09:54:03;;;;;;;;;;;;;;;19.69;100.00;99832.53;5056539;28;19932;-79
2021/08/26 09:56:37;;;;;;;;;;;;;;;19.47;100.00;99826.16;5053478;28;19925;-78
2021/08/26 09:59:06;;;;;;;;;;;;;;;19.53;100.00;99827.13;5052681;28;19924;-77
2021/08/26 10:01:37;;;;;;;;;;;;;;;19.26;100.00;99830.59;5065014;28;19967;-77
2021/08/26 10:04:25;;;;;;;;;;;;;;;19.46;100.00;99842.34;5053315;28;20375;-80
2021/08/26 10:06:53;;;;;;;;;;;;;;;19.35;100.00;99835.53;5055304;28;19924;-77
2021/08/26 10:09:21;;;;;;;;;;;;;;;19.12;100.00;99833.97;5056668;28;19925;-77
2021/08/26 10:11:49;;;;;;;;;;;;;;;19.28;100.00;99836.59;5053874;28;19931;-77
2021/08/26 10:14:16;;;;;;;;;;;;;;;19.28;100.00;99830.94;5054284;28;19925;-77
2021/08/26 10:16:44;;;;;;;;;;;;;;;19.40;100.00;99838.53;5053100;28;20015;-80
2021/08/26 10:19:13;;;;;;;;;;;;;;;19.53;100.00;99825.09;5059343;28;19978;-78
2021/08/26 10:21:40;;;;;;;;;;;;;;;19.98;100.00;99832.94;5058953;28;19964;-79
2021/08/26 10:24:07;;;;;;;;;;;;;;;20.08;100.00;99825.25;5062839;28;19990;-79
2021/08/26 10:26:35;;;;;;;;;;;;;;;19.92;100.00;99820.63;5059547;28;20026;-78
2021/08/26 10:29:05;;;;;;;;;;;;;;;19.20;100.00;99823.94;5063336;28;19925;-78
2021/08/26 10:31:35;;;;;;;;;;;;;;;19.26;100.00;99824.13;5076083;28;20013;-78
2021/08/26 10:34:21;;;;;;;;;;;;;;;19.64;100.00;99825.41;5063673;28;19982;-78
2021/08/26 10:36:54;;;;;;;;;;;;;;;19.94;100.00;99831.50;5061121;28;19925;-79
2021/08/26 10:39:24;;;;;;;;;;;;;;;20.02;100.00;99832.78;5059607;28;20006;-80
2021/08/26 10:41:52;;;;;;;;;;;;;;;19.87;100.00;99831.81;5039903;28;20299;-80
2021/08/26 10:44:19;;;;;;;;;;;;;;;19.73;100.00;99835.22;5057269;28;20420;-82
2021/08/26 10:46:50;;;;;;;;;;;;;;;19.26;100.00;99836.25;5039313;28;19931;-82
2021/08/26 10:49:18;;;;;;;;;;;;;;;19.36;100.00;99837.91;5062129;28;20311;-81
2021/08/26 10:51:50;;;;;;;;;;;;;;;19.43;100.00;99831.19;5065187;28;20426;-81
2021/08/26 10:54:34;;;;;;;;;;;;;;;19.03;100.00;99836.75;5061014;28;19936;-82
2021/08/26 10:57:20;;;;;;;;;;;;;;;18.95;100.00;99829.75;5067930;28;19924;-80
2021/08/26 10:59:47;;;;;;;;;;;;;;;18.50;100.00;99829.41;5069116;28;19928;-80
2021/08/26 11:02:34;;;;;;;;;;;;;;;18.75;100.00;99832.13;5048755;28;19924;-80
2021/08/26 11:05:31;;;;;;;;;;;;;;;19.07;100.00;99831.72;5053253;28;19925;-81
2021/08/26 11:07:59;;;;;;;;;;;;;;;19.06;100.00;99833.00;5047076;28;20378;-80
2021/08/26 11:10:27;;;;;;;;;;;;;;;19.15;100.00;99837.91;5055504;28;19924;-82
2021/08/26 11:13:13;;;;;;;;;;;;;;;19.40;100.00;99824.38;5042139;28;19994;-81
2021/08/26 11:15:41;;;;;;;;;;;;;;;19.37;100.00;99825.31;5037825;28;19924;-79
2021/08/26 11:18:25;;;;;;;;;;;;;;;19.64;100.00;99828.25;5052536;28;20012;-80
2021/08/26 11:20:52;;;;;;;;;;;;;;;19.80;100.00;99832.09;5054749;28;20440;-81
2021/08/26 11:23:19;;;;;;;;;;;;;;;20.02;100.00;99812.94;5056091;28;19925;-83
2021/08/26 11:25:47;;;;;;;;;;;;;;;20.13;100.00;99819.75;5078906;28;19956;-79
2021/08/26 11:28:27;;;;;;;;;;;;;;;19.82;100.00;99819.03;5060420;28;19925;-79
2021/08/26 11:31:12;;;;;;;;;;;;;;;19.99;100.00;99823.19;5054347;28;19929;-78
2021/08/26 11:33:40;;;;;;;;;;;;;;;20.09;100.00;99821.13;5061124;28;19932;-76
2021/08/26 11:36:15;;;;;;;;;;;;;;;20.14;100.00;99834.75;5059258;28;19929;-76
2021/08/26 11:38:46;;;;;;;;;;;;;;;19.90;100.00;99825.22;5058550;28;20421;-77
2021/08/26 11:41:14;;;;;;;;;;;;;;;19.85;100.00;99831.47;5090470;28;19925;-76
2021/08/26 11:43:42;;;;;;;;;;;;;;;19.60;100.00;99833.28;5090451;28;19925;-77
2021/08/26 11:46:10;;;;;;;;;;;;;;;19.59;100.00;99833.75;5059751;28;19925;-76
2021/08/26 11:48:46;;;;;;;;;;;;;;;19.92;100.00;99825.53;5058031;28;20039;-75
2021/08/26 11:51:19;;;;;;;;;;;;;;;19.47;100.00;99826.94;5055662;28;19931;-75
2021/08/26 11:53:46;;;;;;;;;;;;;;;19.65;100.00;99837.56;5090292;28;19979;-76
2021/08/26 11:56:13;;;;;;;;;;;;;;;19.66;100.00;99834.25;5073083;28;19931;-78
2021/08/26 11:58:40;;;;;;;;;;;;;;;19.96;100.00;99840.34;5053518;28;19924;-78
2021/08/26 12:01:07;;;;;;;;;;;;;;;19.83;100.00;99836.84;5060587;28;20383;-80
2021/08/26 12:03:34;;;;;;;;;;;;;;;19.81;100.00;99833.69;5043686;28;19931;-78
2021/08/26 12:06:09;;;;;;;;;;;;;;;19.29;100.00;99829.69;5065100;28;19928;-76
2021/08/26 12:08:46;;;;;;;;;;;;;;;20.17;100.00;99839.47;5049533;28;19932;-75
2021/08/26 12:11:23;;;;;;;;;;;;;;;20.18;100.00;99832.53;5065945;28;20316;-76
2021/08/26 12:13:50;;;;;;;;;;;;;;;20.07;100.00;99829.34;5051812;28;19924;-76
2021/08/26 12:16:27;;;;;;;;;;;;;;;20.25;100.00;99826.56;5068448;28;19925;-76
2021/08/26 12:18:54;;;;;;;;;;;;;;;19.86;100.00;99833.09;5059636;28;19931;-80
2021/08/26 12:21:21;;;;;;;;;;;;;;;20.10;100.00;99836.91;5097317;28;19963;-79
2021/08/26 12:23:49;;;;;;;;;;;;;;;20.50;100.00;99835.59;5070637;28;19970;-79
2021/08/26 12:26:19;;;;;;;;;;;;;;;20.62;100.00;99828.16;5068767;28;19925;-79
2021/08/26 12:28:49;;;;;;;;;;;;;;;20.84;100.00;99825.94;5081455;28;19924;-82
2021/08/26 12:31:17;;;;;;;;;;;;;;;20.42;100.00;99827.84;5066491;28;20015;-81
2021/08/26 12:34:04;;;;;;;;;;;;;;;20.47;100.00;99830.84;5037412;28;19970;-82
2021/08/26 12:36:33;;;;;;;;;;;;;;;20.60;100.00;99833.53;5066508;28;19924;-81
2021/08/26 12:39:21;;;;;;;;;;;;;;;20.83;100.00;99830.03;5076525;28;19984;-81
2021/08/26 12:42:04;;;;;;;;;;;;;;;20.43;100.00;99829.44;5063271;28;19981;-81
2021/08/26 12:44:32;;;;;;;;;;;;;;;20.47;100.00;99821.53;5053339;28;19974;-77
2021/08/26 12:47:02;;;;;;;;;;;;;;;20.61;100.00;99829.44;5063580;28;19924;-77
2021/08/26 12:49:39;;;;;;;;;;;;;;;20.68;100.00;99824.22;5056923;28;19999;-78